Time;durP1;ratioP1;P1;durP2;ratioP2;P2;SDS_P1;SDS_P2;PMS_P1;PMS_P2;Temp;Humidity;BMP_temperature;BMP_pressure;BME280_temperature;BME280_humidity;BME280_pressure;Samples;Min_cycle;Max_cycle;Signal;HPM_P1;HPM_P2
2021/05/07 00:02:56;;;;;;;;;;;8.50;99.90;;;;;;8358102;28;19913;-65
2021/05/07 00:06:57;;;;;;;;;;;8.60;99.90;;;;;;8356916;28;19913;-65
2021/05/07 00:10:58;;;;;;;;;;;8.60;99.90;;;;;;8358712;28;19963;-66
2021/05/07 00:14:59;;;;;;;;;;;8.60;99.90;;;;;;8357910;28;19913;-65
2021/05/07 00:18:59;;;;;;;;;;;8.50;99.90;;;;;;8357292;28;19909;-65
2021/05/07 00:23:00;;;;;;;;;;;8.60;99.90;;;;;;8356574;28;19916;-65
2021/05/07 00:27:00;;;;;;;;;;;8.60;99.90;;;;;;8358248;28;19909;-65
2021/05/07 00:31:01;;;;;;;;;;;8.60;99.90;;;;;;8358136;28;19958;-65
2021/05/07 00:35:01;;;;;;;;;;;8.60;99.90;;;;;;8357779;28;19909;-65
2021/05/07 00:39:02;;;;;;;;;;;8.60;99.90;;;;;;8356912;28;19917;-65
2021/05/07 00:43:02;;;;;;;;;;;8.50;99.90;;;;;;8362587;28;20389;-66
2021/05/07 00:47:06;;;;;;;;;;;8.40;99.90;;;;;;8364457;28;19909;-66
2021/05/07 00:51:06;;;;;;;;;;;8.40;99.90;;;;;;8364806;28;19948;-65
2021/05/07 00:55:07;;;;;;;;;;;8.40;99.90;;;;;;8363750;28;19909;-66
2021/05/07 00:59:08;;;;;;;;;;;8.40;99.90;;;;;;8362962;28;19935;-66
2021/05/07 01:03:09;;;;;;;;;;;8.50;99.90;;;;;;8363514;28;19913;-66
2021/05/07 01:07:09;;;;;;;;;;;8.50;99.90;;;;;;8362238;28;19908;-65
2021/05/07 01:11:10;;;;;;;;;;;8.50;99.90;;;;;;8364579;28;19909;-65
2021/05/07 01:15:12;;;;;;;;;;;8.50;99.90;;;;;;8363082;28;20004;-65
2021/05/07 01:19:14;;;;;;;;;;;8.40;99.90;;;;;;8363950;28;19966;-65
2021/05/07 01:23:14;;;;;;;;;;;8.30;99.90;;;;;;8362877;28;19909;-65
2021/05/07 01:27:15;;;;;;;;;;;8.30;99.90;;;;;;8363309;28;19909;-65
2021/05/07 01:31:15;;;;;;;;;;;8.30;99.90;;;;;;8363405;28;19916;-66
2021/05/07 01:35:20;;;;;;;;;;;8.20;99.90;;;;;;8362373;28;19913;-66
2021/05/07 01:39:20;;;;;;;;;;;8.20;99.90;;;;;;8363148;28;19909;-66
2021/05/07 01:43:21;;;;;;;;;;;8.10;99.90;;;;;;8360798;28;20287;-66
2021/05/07 01:47:21;;;;;;;;;;;8.00;99.90;;;;;;8362687;28;20413;-66
2021/05/07 01:51:22;;;;;;;;;;;7.90;99.90;;;;;;8362453;28;19913;-66
2021/05/07 01:55:25;;;;;;;;;;;8.00;99.90;;;;;;8362094;28;20007;-65
2021/05/07 01:59:25;;;;;;;;;;;7.90;99.90;;;;;;8361342;28;20421;-65
2021/05/07 02:03:26;;;;;;;;;;;7.90;99.90;;;;;;8361604;28;19943;-66
2021/05/07 02:07:27;;;;;;;;;;;7.80;99.90;;;;;;8361276;28;19923;-65
2021/05/07 02:11:28;;;;;;;;;;;7.90;99.90;;;;;;8360125;28;20569;-66
2021/05/07 02:15:28;;;;;;;;;;;7.90;99.90;;;;;;8360813;28;19936;-66
2021/05/07 02:19:29;;;;;;;;;;;7.90;99.90;;;;;;8361793;28;19916;-66
2021/05/07 02:23:29;;;;;;;;;;;8.00;99.90;;;;;;8359342;28;20016;-66
2021/05/07 02:27:30;;;;;;;;;;;7.90;99.90;;;;;;8361735;28;20571;-67
2021/05/07 02:31:30;;;;;;;;;;;8.00;99.90;;;;;;8361193;28;19992;-66
2021/05/07 02:35:32;;;;;;;;;;;8.00;99.90;;;;;;8360694;28;19915;-66
2021/05/07 02:39:33;;;;;;;;;;;8.10;99.90;;;;;;8361138;28;19913;-66
2021/05/07 02:43:33;;;;;;;;;;;8.10;99.90;;;;;;8360303;28;19951;-66
2021/05/07 02:47:34;;;;;;;;;;;8.10;99.90;;;;;;8360546;28;19919;-66
2021/05/07 02:51:35;;;;;;;;;;;8.00;99.90;;;;;;8359509;28;20468;-66
2021/05/07 02:55:35;;;;;;;;;;;8.00;99.90;;;;;;8360508;28;19962;-66
2021/05/07 02:59:36;;;;;;;;;;;8.00;99.90;;;;;;8360536;28;19915;-65
2021/05/07 03:03:36;;;;;;;;;;;7.90;99.90;;;;;;8359047;28;19909;-66
2021/05/07 03:07:37;;;;;;;;;;;7.90;99.90;;;;;;8358541;28;19920;-66
2021/05/07 03:11:37;;;;;;;;;;;7.80;99.90;;;;;;8358926;28;19909;-66
2021/05/07 03:15:38;;;;;;;;;;;7.80;99.90;;;;;;8358591;28;19915;-66
2021/05/07 03:19:39;;;;;;;;;;;7.70;99.90;;;;;;8358687;28;19909;-66
2021/05/07 03:23:40;;;;;;;;;;;7.70;99.90;;;;;;8359237;28;20417;-67
2021/05/07 03:27:40;;;;;;;;;;;7.70;99.90;;;;;;8356142;28;20299;-67
2021/05/07 03:31:41;;;;;;;;;;;7.80;99.90;;;;;;8358155;28;20446;-66
2021/05/07 03:35:41;;;;;;;;;;;7.70;99.90;;;;;;8353559;28;20375;-68
2021/05/07 03:39:42;;;;;;;;;;;7.60;99.90;;;;;;8326235;28;19920;-67
2021/05/07 03:43:42;;;;;;;;;;;7.60;99.90;;;;;;8325446;28;19927;-67
2021/05/07 03:47:43;;;;;;;;;;;7.60;99.90;;;;;;8347082;28;19917;-67
2021/05/07 03:51:44;;;;;;;;;;;7.60;99.90;;;;;;8341280;28;19916;-66
2021/05/07 03:55:44;;;;;;;;;;;7.70;99.90;;;;;;8341051;28;19915;-66
2021/05/07 03:59:45;;;;;;;;;;;7.60;99.90;;;;;;8347417;28;19983;-66
2021/05/07 04:03:45;;;;;;;;;;;7.50;99.90;;;;;;8355434;28;19909;-66
2021/05/07 04:07:52;;;;;;;;;;;7.60;99.90;;;;;;8356870;28;19912;-67
2021/05/07 04:11:55;;;;;;;;;;;7.70;99.90;;;;;;8357953;28;19960;-66
2021/05/07 04:15:56;;;;;;;;;;;7.60;99.90;;;;;;8359431;28;19909;-66
2021/05/07 04:19:56;;;;;;;;;;;7.60;99.90;;;;;;8365232;28;19944;-66
2021/05/07 04:23:57;;;;;;;;;;;7.50;99.90;;;;;;8364064;28;19908;-66
2021/05/07 04:27:57;;;;;;;;;;;7.60;99.90;;;;;;8364483;28;19975;-66
2021/05/07 04:31:59;;;;;;;;;;;7.60;99.90;;;;;;8351556;28;20000;-66
2021/05/07 04:35:59;;;;;;;;;;;7.50;99.90;;;;;;8360426;28;19932;-67
2021/05/07 04:40:00;;;;;;;;;;;7.50;99.90;;;;;;8362854;28;19913;-67
2021/05/07 04:44:01;;;;;;;;;;;7.60;99.90;;;;;;8364056;28;19924;-66
2021/05/07 04:48:09;;;;;;;;;;;7.60;99.90;;;;;;8360807;28;19962;-67
2021/05/07 04:52:10;;;;;;;;;;;7.60;99.90;;;;;;8362941;28;20468;-67
2021/05/07 04:56:10;;;;;;;;;;;7.60;99.90;;;;;;8363145;28;19909;-67
2021/05/07 05:00:11;;;;;;;;;;;7.60;99.90;;;;;;8364031;28;19909;-67
2021/05/07 05:04:11;;;;;;;;;;;7.60;99.90;;;;;;8357201;28;19956;-66
2021/05/07 05:08:19;;;;;;;;;;;7.70;99.90;;;;;;8347445;28;20295;-67
2021/05/07 05:12:19;;;;;;;;;;;7.70;99.90;;;;;;8362333;28;19909;-69
2021/05/07 05:16:21;;;;;;;;;;;7.70;99.90;;;;;;8338270;28;19955;-69
2021/05/07 05:20:21;;;;;;;;;;;7.80;99.90;;;;;;8346167;28;19917;-70
2021/05/07 05:24:22;;;;;;;;;;;7.80;99.90;;;;;;8345298;28;19917;-68
2021/05/07 05:28:23;;;;;;;;;;;8.00;99.90;;;;;;8352830;28;19994;-69
2021/05/07 05:32:23;;;;;;;;;;;8.20;99.90;;;;;;8356320;28;19919;-63
2021/05/07 05:36:24;;;;;;;;;;;8.10;99.90;;;;;;8357078;28;19914;-63
2021/05/07 05:40:25;;;;;;;;;;;8.20;99.90;;;;;;8355024;28;19939;-63
2021/05/07 05:44:25;;;;;;;;;;;8.10;99.90;;;;;;8342965;28;19960;-63
2021/05/07 05:48:26;;;;;;;;;;;8.30;99.90;;;;;;8354936;28;19917;-63
2021/05/07 05:52:26;;;;;;;;;;;8.40;99.90;;;;;;8329143;28;20308;-63
2021/05/07 05:56:27;;;;;;;;;;;8.30;99.90;;;;;;8328799;28;19909;-63
2021/05/07 06:00:27;;;;;;;;;;;8.40;99.90;;;;;;8328416;28;19909;-64
2021/05/07 06:04:28;;;;;;;;;;;8.50;99.90;;;;;;8361106;28;19909;-64
2021/05/07 06:08:29;;;;;;;;;;;8.40;99.90;;;;;;8352357;28;19928;-64
2021/05/07 06:12:29;;;;;;;;;;;8.30;99.90;;;;;;8348918;28;19952;-64
2021/05/07 06:16:30;;;;;;;;;;;8.20;99.90;;;;;;8359892;28;19909;-63
2021/05/07 06:20:30;;;;;;;;;;;8.20;99.90;;;;;;8344326;28;20366;-64
2021/05/07 06:24:31;;;;;;;;;;;8.20;99.90;;;;;;8337012;28;19916;-64
2021/05/07 06:28:31;;;;;;;;;;;8.20;99.90;;;;;;8343395;28;20374;-63
2021/05/07 06:32:32;;;;;;;;;;;8.20;99.90;;;;;;8360404;28;19919;-63
2021/05/07 06:36:32;;;;;;;;;;;8.30;99.90;;;;;;8360320;28;19940;-63
2021/05/07 06:40:33;;;;;;;;;;;8.30;99.90;;;;;;8350940;28;19917;-62
2021/05/07 06:44:33;;;;;;;;;;;8.00;99.90;;;;;;8338126;28;19922;-63
2021/05/07 06:48:34;;;;;;;;;;;7.40;99.90;;;;;;8330275;28;19922;-62
2021/05/07 06:52:35;;;;;;;;;;;6.80;99.90;;;;;;8355747;28;19913;-63
2021/05/07 06:56:35;;;;;;;;;;;6.50;99.90;;;;;;8358719;28;19956;-62
2021/05/07 07:00:37;;;;;;;;;;;6.40;99.90;;;;;;8339271;28;19956;-63
2021/05/07 07:04:37;;;;;;;;;;;6.40;99.90;;;;;;8348645;28;19913;-63
2021/05/07 07:08:38;;;;;;;;;;;6.40;99.90;;;;;;8351213;28;19987;-62
2021/05/07 07:12:39;;;;;;;;;;;6.40;99.90;;;;;;8342216;28;19921;-65
2021/05/07 07:16:40;;;;;;;;;;;6.10;99.90;;;;;;8330438;28;20288;-64
2021/05/07 07:20:40;;;;;;;;;;;5.90;99.90;;;;;;8327845;28;19917;-66
2021/05/07 07:24:41;;;;;;;;;;;5.80;99.90;;;;;;8325705;28;19920;-65
2021/05/07 07:28:43;;;;;;;;;;;5.70;99.90;;;;;;8344055;28;20383;-66
2021/05/07 07:32:44;;;;;;;;;;;5.80;99.90;;;;;;8328830;28;19921;-66
2021/05/07 07:36:47;;;;;;;;;;;6.20;99.90;;;;;;8340907;28;20077;-66
2021/05/07 07:40:49;;;;;;;;;;;6.30;99.90;;;;;;8342372;28;19992;-66
2021/05/07 07:44:50;;;;;;;;;;;6.60;99.90;;;;;;8346573;28;19928;-67
2021/05/07 07:48:51;;;;;;;;;;;6.80;99.90;;;;;;8333710;28;19917;-66
2021/05/07 07:52:52;;;;;;;;;;;6.80;99.90;;;;;;8329905;28;19995;-66
2021/05/07 07:56:53;;;;;;;;;;;6.40;99.90;;;;;;8354215;28;19925;-66
2021/05/07 08:00:55;;;;;;;;;;;6.70;99.90;;;;;;8351411;28;19913;-66
2021/05/07 08:04:55;;;;;;;;;;;6.70;99.90;;;;;;8357290;28;20363;-66
2021/05/07 08:08:56;;;;;;;;;;;6.80;99.90;;;;;;8345914;28;19917;-66
2021/05/07 08:12:57;;;;;;;;;;;7.00;99.90;;;;;;8323928;28;19971;-66
2021/05/07 08:16:58;;;;;;;;;;;7.60;99.90;;;;;;8344315;28;19913;-67
2021/05/07 08:20:58;;;;;;;;;;;7.70;99.90;;;;;;8350061;28;20291;-67
2021/05/07 08:24:59;;;;;;;;;;;7.80;99.90;;;;;;8329323;28;19913;-66
2021/05/07 08:29:00;;;;;;;;;;;7.80;99.90;;;;;;8340169;28;19952;-66
2021/05/07 08:33:01;;;;;;;;;;;7.70;99.90;;;;;;8341224;28;19909;-66
2021/05/07 08:37:01;;;;;;;;;;;7.30;99.90;;;;;;8349999;28;19912;-67
2021/05/07 08:41:05;;;;;;;;;;;7.20;99.90;;;;;;8331342;28;19917;-66
2021/05/07 08:45:06;;;;;;;;;;;7.50;99.90;;;;;;8357060;28;19912;-65
2021/05/07 08:49:07;;;;;;;;;;;7.90;99.90;;;;;;8346844;28;19971;-64
2021/05/07 08:53:08;;;;;;;;;;;7.70;99.90;;;;;;8348377;28;20003;-64
2021/05/07 08:57:08;;;;;;;;;;;7.40;99.90;;;;;;8350856;28;19971;-65
2021/05/07 09:01:09;;;;;;;;;;;7.10;99.90;;;;;;8349164;28;19912;-65
2021/05/07 09:05:09;;;;;;;;;;;7.00;99.90;;;;;;8341349;28;19916;-64
2021/05/07 09:09:17;;;;;;;;;;;7.10;99.90;;;;;;8348135;28;19920;-64
2021/05/07 09:13:19;;;;;;;;;;;7.50;99.90;;;;;;8338295;28;19917;-67
2021/05/07 09:17:24;;;;;;;;;;;7.90;99.90;;;;;;8357385;28;20365;-67
2021/05/07 09:21:24;;;;;;;;;;;8.30;99.90;;;;;;8330505;28;19928;-67
2021/05/07 09:25:25;;;;;;;;;;;8.00;99.90;;;;;;8345107;28;19967;-68
2021/05/07 09:29:30;;;;;;;;;;;8.00;99.90;;;;;;8360434;28;19912;-66
2021/05/07 09:33:31;;;;;;;;;;;8.00;99.90;;;;;;8356528;28;19959;-66
2021/05/07 09:37:31;;;;;;;;;;;8.50;99.90;;;;;;8360347;28;19913;-66
2021/05/07 09:41:42;;;;;;;;;;;8.70;99.90;;;;;;8359371;28;19916;-67
2021/05/07 09:45:45;;;;;;;;;;;8.40;99.90;;;;;;8346847;28;19913;-67
2021/05/07 09:49:46;;;;;;;;;;;9.20;99.90;;;;;;8329373;28;20034;-67
2021/05/07 09:53:46;;;;;;;;;;;9.80;99.90;;;;;;8327676;28;20036;-66
2021/05/07 09:57:47;;;;;;;;;;;9.90;99.90;;;;;;8349393;28;19917;-67
2021/05/07 10:01:48;;;;;;;;;;;9.40;99.90;;;;;;8351035;28;19953;-64
2021/05/07 10:05:48;;;;;;;;;;;8.60;99.90;;;;;;8330152;28;19921;-64
2021/05/07 10:09:49;;;;;;;;;;;8.50;99.90;;;;;;8351666;28;19939;-65
2021/05/07 10:13:51;;;;;;;;;;;9.00;99.90;;;;;;8352216;28;19921;-64
2021/05/07 10:17:51;;;;;;;;;;;9.60;99.90;;;;;;8352604;28;19913;-64
2021/05/07 10:22:03;;;;;;;;;;;9.50;99.90;;;;;;8347026;28;20298;-64
2021/05/07 10:26:08;;;;;;;;;;;10.20;99.90;;;;;;8341248;28;20459;-64
2021/05/07 10:30:09;;;;;;;;;;;10.20;99.90;;;;;;8341609;28;20667;-64
2021/05/07 10:34:10;;;;;;;;;;;10.10;99.90;;;;;;8339466;28;19913;-64
2021/05/07 10:38:12;;;;;;;;;;;10.00;99.90;;;;;;8342048;28;20395;-64
2021/05/07 10:42:15;;;;;;;;;;;9.50;99.90;;;;;;8351633;28;19917;-63
2021/05/07 10:46:22;;;;;;;;;;;9.20;99.90;;;;;;8346080;28;19952;-63
2021/05/07 10:50:23;;;;;;;;;;;8.00;99.90;;;;;;8343526;28;20071;-63
2021/05/07 10:54:33;;;;;;;;;;;7.00;99.90;;;;;;8349141;28;19939;-63
2021/05/07 10:58:34;;;;;;;;;;;6.40;99.90;;;;;;8332623;28;19955;-63
2021/05/07 11:02:41;;;;;;;;;;;6.30;99.90;;;;;;8343415;28;19948;-63
2021/05/07 11:06:43;;;;;;;;;;;6.00;99.90;;;;;;8360465;28;19916;-66
2021/05/07 11:10:43;;;;;;;;;;;6.20;99.90;;;;;;8357402;28;19920;-66
2021/05/07 11:14:44;;;;;;;;;;;6.90;99.90;;;;;;8350555;28;19996;-66
2021/05/07 11:18:47;;;;;;;;;;;7.30;99.90;;;;;;8329304;28;22528;-67
2021/05/07 11:22:55;;;;;;;;;;;8.20;99.90;;;;;;8326114;28;20015;-66
2021/05/07 11:26:56;;;;;;;;;;;9.40;99.90;;;;;;8326123;28;19909;-66
2021/05/07 11:30:57;;;;;;;;;;;10.70;99.90;;;;;;8328395;28;19917;-66
2021/05/07 11:35:01;;;;;;;;;;;10.80;99.90;;;;;;8338867;28;19916;-65
2021/05/07 11:39:13;;;;;;;;;;;13.20;99.90;;;;;;8349712;28;20513;-64
2021/05/07 11:43:13;;;;;;;;;;;14.80;99.90;;;;;;8351666;28;20034;-64
2021/05/07 11:47:14;;;;;;;;;;;14.70;99.90;;;;;;8358134;28;19909;-63
2021/05/07 11:51:15;;;;;;;;;;;14.20;99.90;;;;;;8332127;28;19917;-63
2021/05/07 11:55:18;;;;;;;;;;;15.00;98.70;;;;;;8336708;28;19912;-63
2021/05/07 11:59:22;;;;;;;;;;;15.20;97.70;;;;;;8342850;28;19921;-63
2021/05/07 12:03:25;;;;;;;;;;;17.10;95.70;;;;;;8349214;28;19913;-63
2021/05/07 12:07:27;;;;;;;;;;;16.20;92.00;;;;;;8354852;28;19987;-63
2021/05/07 12:11:28;;;;;;;;;;;14.00;95.20;;;;;;8353993;28;20439;-63
2021/05/07 12:15:40;;;;;;;;;;;12.20;99.40;;;;;;8356899;28;19913;-63
2021/05/07 12:19:41;;;;;;;;;;;11.10;99.90;;;;;;8352889;28;19920;-63
2021/05/07 12:23:44;;;;;;;;;;;11.40;99.30;;;;;;8342776;28;19913;-62
2021/05/07 12:27:46;;;;;;;;;;;11.00;98.40;;;;;;8324182;28;20451;-63
2021/05/07 12:31:46;;;;;;;;;;;11.30;98.10;;;;;;8351468;28;20347;-63
2021/05/07 12:35:47;;;;;;;;;;;12.10;99.90;;;;;;8356924;28;19934;-63
2021/05/07 12:39:48;;;;;;;;;;;12.30;97.00;;;;;;8353089;28;19913;-63
2021/05/07 12:43:49;;;;;;;;;;;11.30;99.30;;;;;;8361810;28;19924;-63
2021/05/07 12:47:50;;;;;;;;;;;10.80;99.90;;;;;;8361155;28;19913;-63
2021/05/07 12:51:50;;;;;;;;;;;14.20;97.20;;;;;;8363393;28;20008;-62
2021/05/07 12:55:51;;;;;;;;;;;16.50;79.40;;;;;;8346791;28;19913;-63
2021/05/07 12:59:51;;;;;;;;;;;16.80;67.60;;;;;;8346728;28;20372;-63
2021/05/07 13:03:52;;;;;;;;;;;16.10;66.60;;;;;;8361998;28;19920;-64
2021/05/07 13:07:52;;;;;;;;;;;16.40;69.40;;;;;;8361033;28;22230;-64
2021/05/07 13:11:53;;;;;;;;;;;17.40;67.20;;;;;;8363273;28;19917;-63
2021/05/07 13:15:53;;;;;;;;;;;16.60;66.60;;;;;;8361862;28;19920;-64
2021/05/07 13:19:54;;;;;;;;;;;13.90;78.80;;;;;;8351989;28;19924;-63
2021/05/07 13:23:54;;;;;;;;;;;12.10;84.90;;;;;;8348803;28;19909;-62
2021/05/07 13:27:54;;;;;;;;;;;12.30;92.90;;;;;;8347440;28;20265;-62
2021/05/07 13:31:55;;;;;;;;;;;13.50;90.60;;;;;;8351203;28;19913;-63
2021/05/07 13:35:56;;;;;;;;;;;13.80;77.70;;;;;;8359108;28;20410;-63
2021/05/07 13:39:57;;;;;;;;;;;14.00;91.30;;;;;;8358076;28;20540;-62
2021/05/07 13:43:57;;;;;;;;;;;13.20;92.70;;;;;;8360890;28;19956;-62
2021/05/07 13:47:58;;;;;;;;;;;12.30;90.00;;;;;;8355979;28;19916;-62
2021/05/07 13:52:01;;;;;;;;;;;12.50;83.20;;;;;;8357559;28;19913;-62
2021/05/07 13:56:02;;;;;;;;;;;14.60;75.10;;;;;;8355312;28;20065;-62
2021/05/07 14:00:04;;;;;;;;;;;14.90;72.50;;;;;;8352297;28;19917;-63
2021/05/07 14:04:04;;;;;;;;;;;12.80;75.50;;;;;;8341658;28;20565;-62
2021/05/07 14:08:05;;;;;;;;;;;12.20;90.00;;;;;;8344870;28;19948;-62
2021/05/07 14:12:05;;;;;;;;;;;12.10;84.60;;;;;;8354012;28;19913;-63
2021/05/07 14:16:06;;;;;;;;;;;16.30;66.50;;;;;;8331408;28;19917;-62
2021/05/07 14:20:07;;;;;;;;;;;14.50;65.90;;;;;;8370630;28;19915;-62
2021/05/07 14:24:11;;;;;;;;;;;12.60;75.20;;;;;;8358195;28;20004;-62
2021/05/07 14:28:11;;;;;;;;;;;11.80;81.30;;;;;;8356194;28;19917;-62
2021/05/07 14:32:12;;;;;;;;;;;11.80;79.20;;;;;;8357555;28;19940;-62
2021/05/07 14:36:12;;;;;;;;;;;11.80;83.90;;;;;;8360032;28;19909;-62
2021/05/07 14:40:13;;;;;;;;;;;12.10;83.00;;;;;;8333547;28;20376;-63
2021/05/07 14:44:14;;;;;;;;;;;14.60;73.20;;;;;;8327739;28;19986;-62
2021/05/07 14:48:15;;;;;;;;;;;14.30;69.30;;;;;;8331984;28;20007;-63
2021/05/07 14:52:15;;;;;;;;;;;14.20;72.20;;;;;;8358790;28;19913;-62
2021/05/07 14:56:16;;;;;;;;;;;14.00;69.20;;;;;;8346788;28;20387;-62
2021/05/07 15:00:17;;;;;;;;;;;14.40;67.90;;;;;;8353126;28;19920;-63
2021/05/07 15:04:17;;;;;;;;;;;15.20;70.00;;;;;;8356904;28;19913;-63
2021/05/07 15:08:20;;;;;;;;;;;17.20;61.50;;;;;;8357597;28;19921;-63
2021/05/07 15:12:21;;;;;;;;;;;18.40;62.10;;;;;;8338693;28;19917;-63
2021/05/07 15:16:22;;;;;;;;;;;19.00;55.10;;;;;;8352574;28;19913;-62
2021/05/07 15:20:23;;;;;;;;;;;18.50;60.00;;;;;;8359995;28;19915;-62
2021/05/07 15:24:24;;;;;;;;;;;17.00;74.70;;;;;;8355654;28;20342;-62
2021/05/07 15:28:24;;;;;;;;;;;17.10;66.90;;;;;;8357051;28;19924;-62
2021/05/07 15:32:25;;;;;;;;;;;16.80;65.30;;;;;;8358892;28;19920;-63
2021/05/07 15:36:26;;;;;;;;;;;17.40;65.10;;;;;;8352536;28;19936;-62
2021/05/07 15:40:27;;;;;;;;;;;18.40;53.10;;;;;;8338255;28;19919;-62
2021/05/07 15:44:27;;;;;;;;;;;15.60;60.00;;;;;;8344989;28;19921;-62
2021/05/07 15:48:28;;;;;;;;;;;14.00;60.60;;;;;;8347037;28;20379;-62
2021/05/07 15:52:28;;;;;;;;;;;13.10;60.00;;;;;;8336870;28;19924;-62
2021/05/07 15:56:29;;;;;;;;;;;12.00;65.30;;;;;;8343224;28;19920;-62
2021/05/07 16:00:29;;;;;;;;;;;11.80;67.50;;;;;;8355386;28;19909;-63
2021/05/07 16:04:30;;;;;;;;;;;12.00;68.60;;;;;;8358247;28;19994;-64
2021/05/07 16:08:30;;;;;;;;;;;12.80;68.80;;;;;;8358845;28;20394;-64
2021/05/07 16:12:31;;;;;;;;;;;13.10;66.20;;;;;;8367513;28;19912;-64
2021/05/07 16:16:32;;;;;;;;;;;12.60;64.90;;;;;;8370844;28;19909;-64
2021/05/07 16:20:32;;;;;;;;;;;12.80;64.40;;;;;;8370910;28;19929;-64
2021/05/07 16:24:33;;;;;;;;;;;12.40;67.70;;;;;;8363696;28;19917;-65
2021/05/07 16:28:33;;;;;;;;;;;12.30;66.60;;;;;;8353121;28;19920;-64
2021/05/07 16:32:34;;;;;;;;;;;14.90;57.70;;;;;;8349320;28;19939;-64
2021/05/07 16:36:39;;;;;;;;;;;15.70;58.80;;;;;;8350334;28;20379;-63
2021/05/07 16:40:39;;;;;;;;;;;18.60;52.60;;;;;;8359026;28;19939;-63
2021/05/07 16:44:40;;;;;;;;;;;18.90;50.80;;;;;;8351845;28;19920;-62
2021/05/07 16:48:40;;;;;;;;;;;17.90;49.10;;;;;;8353028;28;19924;-62
2021/05/07 16:52:43;;;;;;;;;;;15.30;56.10;;;;;;8344893;28;19913;-62
2021/05/07 16:56:43;;;;;;;;;;;15.90;55.30;;;;;;8339524;28;20139;-62
2021/05/07 17:00:44;;;;;;;;;;;14.70;57.30;;;;;;8345748;28;20347;-63
2021/05/07 17:04:44;;;;;;;;;;;16.00;55.20;;;;;;8348293;28;19921;-63
2021/05/07 17:08:44;;;;;;;;;;;14.90;55.40;;;;;;8348380;28;19925;-62
2021/05/07 17:12:45;;;;;;;;;;;16.40;55.40;;;;;;8350944;28;19920;-62
2021/05/07 17:16:46;;;;;;;;;;;18.30;51.40;;;;;;8353710;28;19913;-62
2021/05/07 17:20:47;;;;;;;;;;;18.30;49.60;;;;;;8354664;28;19916;-62
2021/05/07 17:24:47;;;;;;;;;;;15.60;53.40;;;;;;8338091;28;19917;-62
2021/05/07 17:28:48;;;;;;;;;;;14.80;55.30;;;;;;8331995;28;19978;-62
2021/05/07 17:32:48;;;;;;;;;;;13.60;59.20;;;;;;8335215;28;19920;-62
2021/05/07 17:36:49;;;;;;;;;;;12.80;63.50;;;;;;8333068;28;19921;-61
2021/05/07 17:40:49;;;;;;;;;;;12.70;63.60;;;;;;8348572;28;19917;-61
2021/05/07 17:44:50;;;;;;;;;;;12.90;63.60;;;;;;8339707;28;20004;-62
2021/05/07 17:48:51;;;;;;;;;;;11.80;66.50;;;;;;8351167;28;19916;-61
2021/05/07 17:52:51;;;;;;;;;;;10.90;71.70;;;;;;8344579;28;19963;-62
2021/05/07 17:56:52;;;;;;;;;;;10.50;74.00;;;;;;8336424;28;19916;-62
2021/05/07 18:00:52;;;;;;;;;;;10.30;74.00;;;;;;8336366;28;19921;-61
2021/05/07 18:04:53;;;;;;;;;;;10.20;75.80;;;;;;8333050;28;19917;-62
2021/05/07 18:08:53;;;;;;;;;;;10.00;77.90;;;;;;8336290;28;19924;-62
2021/05/07 18:12:54;;;;;;;;;;;10.00;78.50;;;;;;8340252;28;20059;-62
2021/05/07 18:16:54;;;;;;;;;;;9.80;81.60;;;;;;8348752;28;19924;-61
2021/05/07 18:20:55;;;;;;;;;;;9.90;83.80;;;;;;8343637;28;19945;-61
2021/05/07 18:24:55;;;;;;;;;;;9.90;86.20;;;;;;8338506;28;19913;-61
2021/05/07 18:28:56;;;;;;;;;;;9.60;88.80;;;;;;8332111;28;20635;-61
2021/05/07 18:32:56;;;;;;;;;;;8.80;91.50;;;;;;8328405;28;19921;-60
2021/05/07 18:36:57;;;;;;;;;;;8.40;94.50;;;;;;8341597;28;19920;-61
2021/05/07 18:40:57;;;;;;;;;;;8.20;97.20;;;;;;8344805;28;19963;-61
2021/05/07 18:44:58;;;;;;;;;;;7.90;99.20;;;;;;8333935;28;19913;-62
2021/05/07 18:48:59;;;;;;;;;;;7.70;99.90;;;;;;8356466;28;19927;-61
2021/05/07 18:53:03;;;;;;;;;;;7.50;99.90;;;;;;8331475;28;19924;-61
2021/05/07 18:57:04;;;;;;;;;;;7.40;99.90;;;;;;8337399;28;19913;-61
2021/05/07 19:01:04;;;;;;;;;;;7.40;99.90;;;;;;8324786;28;19951;-62
2021/05/07 19:05:05;;;;;;;;;;;7.40;99.90;;;;;;8337800;28;20542;-62
2021/05/07 19:09:06;;;;;;;;;;;7.40;99.90;;;;;;8321552;28;19959;-61
2021/05/07 19:13:07;;;;;;;;;;;7.50;99.90;;;;;;8325078;28;20067;-61
2021/05/07 19:17:07;;;;;;;;;;;7.20;99.90;;;;;;8331780;28;19921;-61
2021/05/07 19:21:08;;;;;;;;;;;6.80;99.90;;;;;;8322650;28;19991;-61
2021/05/07 19:25:09;;;;;;;;;;;6.50;99.90;;;;;;8321791;28;19967;-61
2021/05/07 19:29:09;;;;;;;;;;;6.30;99.90;;;;;;8340674;28;19963;-63
2021/05/07 19:33:10;;;;;;;;;;;6.50;99.90;;;;;;8367808;28;19959;-63
2021/05/07 19:37:10;;;;;;;;;;;6.20;99.90;;;;;;8339643;28;20658;-63
2021/05/07 19:41:11;;;;;;;;;;;5.80;99.90;;;;;;8335090;28;19917;-63
2021/05/07 19:45:12;;;;;;;;;;;5.70;99.90;;;;;;8330012;28;19914;-63
2021/05/07 19:49:12;;;;;;;;;;;5.60;99.90;;;;;;8342753;28;19921;-63
2021/05/07 19:53:13;;;;;;;;;;;5.60;99.90;;;;;;8346341;28;19921;-63
2021/05/07 19:57:13;;;;;;;;;;;5.50;99.90;;;;;;8349450;28;19916;-63
2021/05/07 20:01:14;;;;;;;;;;;5.20;99.90;;;;;;8335101;28;19971;-63
2021/05/07 20:05:15;;;;;;;;;;;5.20;99.90;;;;;;8321679;28;19917;-63
2021/05/07 20:09:15;;;;;;;;;;;5.30;99.90;;;;;;8332446;28;20307;-63
2021/05/07 20:13:16;;;;;;;;;;;5.10;99.90;;;;;;8353556;28;19913;-63
2021/05/07 20:17:16;;;;;;;;;;;4.90;99.90;;;;;;8348413;28;19917;-63
2021/05/07 20:21:17;;;;;;;;;;;4.80;99.90;;;;;;8321048;28;19974;-63
2021/05/07 20:25:17;;;;;;;;;;;4.60;99.90;;;;;;8331581;28;19913;-62
2021/05/07 20:29:19;;;;;;;;;;;4.60;99.90;;;;;;8338337;28;20030;-63
2021/05/07 20:33:22;;;;;;;;;;;4.70;99.90;;;;;;8349477;28;20015;-62
2021/05/07 20:37:25;;;;;;;;;;;4.80;99.90;;;;;;8348625;28;20003;-62
2021/05/07 20:41:28;;;;;;;;;;;4.70;99.90;;;;;;8338669;28;20016;-62
2021/05/07 20:45:30;;;;;;;;;;;4.50;99.90;;;;;;8328929;28;20284;-63
2021/05/07 20:49:32;;;;;;;;;;;4.20;99.90;;;;;;8331332;28;19917;-62
2021/05/07 20:53:33;;;;;;;;;;;4.40;99.90;;;;;;8339187;28;19921;-63
2021/05/07 20:57:34;;;;;;;;;;;4.10;99.90;;;;;;8337032;28;19953;-62
2021/05/07 21:01:34;;;;;;;;;;;3.80;99.90;;;;;;8344762;28;19917;-63
2021/05/07 21:05:36;;;;;;;;;;;3.80;99.90;;;;;;8338673;28;19917;-62
2021/05/07 21:09:37;;;;;;;;;;;3.90;99.90;;;;;;8354707;28;19917;-63
2021/05/07 21:13:37;;;;;;;;;;;3.90;99.90;;;;;;8352960;28;19917;-63
2021/05/07 21:17:38;;;;;;;;;;;3.90;99.90;;;;;;8343065;28;19932;-62
2021/05/07 21:21:38;;;;;;;;;;;3.70;99.90;;;;;;8343215;28;19963;-63
2021/05/07 21:25:39;;;;;;;;;;;3.60;99.90;;;;;;8341567;28;19909;-63
2021/05/07 21:29:39;;;;;;;;;;;3.30;99.90;;;;;;8345583;28;20625;-63
2021/05/07 21:33:40;;;;;;;;;;;3.50;99.90;;;;;;8358963;28;19917;-63
2021/05/07 21:37:40;;;;;;;;;;;3.60;99.90;;;;;;8335643;28;19924;-62
2021/05/07 21:41:41;;;;;;;;;;;3.60;99.90;;;;;;8331149;28;19939;-63
2021/05/07 21:45:41;;;;;;;;;;;3.60;99.90;;;;;;8330572;28;19913;-63
2021/05/07 21:49:43;;;;;;;;;;;3.30;99.90;;;;;;8353382;28;20290;-63
2021/05/07 21:53:44;;;;;;;;;;;3.20;99.90;;;;;;8348144;28;20369;-63
2021/05/07 21:57:46;;;;;;;;;;;3.10;99.90;;;;;;8341728;28;19953;-63
2021/05/07 22:01:47;;;;;;;;;;;3.10;99.90;;;;;;8345551;28;20572;-62
2021/05/07 22:05:47;;;;;;;;;;;3.00;99.90;;;;;;8360920;28;20058;-62
2021/05/07 22:09:48;;;;;;;;;;;3.10;99.90;;;;;;8361897;28;19920;-62
2021/05/07 22:13:48;;;;;;;;;;;2.90;99.90;;;;;;8346562;28;20011;-62
2021/05/07 22:17:49;;;;;;;;;;;2.70;99.90;;;;;;8328826;28;19913;-63
2021/05/07 22:21:49;;;;;;;;;;;2.90;99.90;;;;;;8365902;28;19917;-63
2021/05/07 22:25:51;;;;;;;;;;;3.00;99.90;;;;;;8390883;28;19933;-62
2021/05/07 22:29:52;;;;;;;;;;;2.90;99.90;;;;;;8389947;28;19912;-63
2021/05/07 22:33:52;;;;;;;;;;;2.60;99.90;;;;;;8362777;28;19958;-63
2021/05/07 22:37:53;;;;;;;;;;;2.40;99.90;;;;;;8358325;28;20372;-62
2021/05/07 22:41:53;;;;;;;;;;;2.40;99.90;;;;;;8355771;28;19936;-62
2021/05/07 22:45:54;;;;;;;;;;;2.30;99.90;;;;;;8356893;28;20059;-62
2021/05/07 22:49:54;;;;;;;;;;;2.20;99.90;;;;;;8333173;28;19957;-62
2021/05/07 22:53:55;;;;;;;;;;;2.10;99.90;;;;;;8324491;28;19928;-63
2021/05/07 22:57:55;;;;;;;;;;;2.00;99.90;;;;;;8328023;28;19913;-63
2021/05/07 23:01:56;;;;;;;;;;;1.90;99.90;;;;;;8337240;28;19912;-62
2021/05/07 23:05:56;;;;;;;;;;;1.80;99.90;;;;;;8360626;28;19909;-62
2021/05/07 23:09:57;;;;;;;;;;;1.90;99.90;;;;;;8360415;28;19912;-63
2021/05/07 23:13:57;;;;;;;;;;;2.00;99.90;;;;;;8360101;28;20407;-62
2021/05/07 23:17:58;;;;;;;;;;;2.30;99.90;;;;;;8360593;28;19908;-62
2021/05/07 23:21:58;;;;;;;;;;;2.30;99.90;;;;;;8335169;28;19920;-63
2021/05/07 23:25:59;;;;;;;;;;;2.00;99.90;;;;;;8325554;28;20494;-63
2021/05/07 23:29:59;;;;;;;;;;;2.20;99.90;;;;;;8326399;28;20343;-62
2021/05/07 23:34:00;;;;;;;;;;;2.10;99.90;;;;;;8354534;28;19909;-62
2021/05/07 23:38:01;;;;;;;;;;;1.90;99.90;;;;;;8356838;28;19951;-62